Time;durP1;ratioP1;P1;durP2;ratioP2;P2;SDS_P1;SDS_P2;PMS_P1;PMS_P2;Temp;Humidity;BMP_temperature;BMP_pressure;BME280_temperature;BME280_humidity;BME280_pressure;Samples;Min_cycle;Max_cycle;Signal;HPM_P1;HPM_P2
2023/01/07 00:01:20;;;;;;;10.07;5.90;;;;;;;-6.03;70.59;100663.20;1722709;82;20981;-69
2023/01/07 00:03:47;;;;;;;7.57;5.67;;;;;;;-6.07;70.65;100663.09;1708759;82;20935;-73
2023/01/07 00:06:18;;;;;;;13.00;5.37;;;;;;;-6.22;70.40;100678.67;1716939;82;21643;-73
2023/01/07 00:08:47;;;;;;;7.87;5.10;;;;;;;-6.42;70.90;100681.98;1707133;82;21115;-69
2023/01/07 00:11:20;;;;;;;5.00;4.47;;;;;;;-6.44;71.23;100679.98;1706023;82;21628;-69
2023/01/07 00:13:48;;;;;;;9.75;5.50;;;;;;;-6.40;71.45;100673.55;1695252;82;21524;-71
2023/01/07 00:16:17;;;;;;;6.63;4.97;;;;;;;-6.45;71.48;100678.30;1686481;82;21002;-71
2023/01/07 00:18:46;;;;;;;9.67;5.67;;;;;;;-6.45;71.68;100680.45;1724169;82;20982;-73
2023/01/07 00:21:15;;;;;;;6.87;5.60;;;;;;;-6.49;71.82;100684.72;1711844;82;20983;-68
2023/01/07 00:23:44;;;;;;;9.70;5.50;;;;;;;-6.48;72.17;100682.00;1716738;82;21258;-69
2023/01/07 00:26:16;;;;;;;8.83;4.90;;;;;;;-6.46;71.98;100672.23;1703483;82;21077;-69
2023/01/07 00:28:46;;;;;;;6.25;5.17;;;;;;;-6.52;71.90;100674.00;1711219;82;20942;-69
2023/01/07 00:31:16;;;;;;;7.57;5.30;;;;;;;-6.65;72.04;100667.56;1729581;82;21519;-70
2023/01/07 00:33:50;;;;;;;8.23;5.10;;;;;;;-6.69;72.33;100664.83;1707127;82;21006;-69
2023/01/07 00:36:12;;;;;;;9.40;5.70;;;;;;;-6.69;72.28;100670.06;1712347;82;21920;-69
2023/01/07 00:38:39;;;;;;;11.17;6.37;;;;;;;-6.72;72.59;100667.69;1709419;82;21526;-69
2023/01/07 00:41:05;;;;;;;11.07;6.07;;;;;;;-6.74;72.81;100676.11;1706134;84;21094;-71
2023/01/07 00:43:33;;;;;;;12.70;6.47;;;;;;;-6.82;72.47;100683.71;1708059;82;21059;-70
2023/01/07 00:46:00;;;;;;;5.00;4.47;;;;;;;-6.89;72.74;100699.48;1729564;82;21074;-69
2023/01/07 00:48:26;;;;;;;9.00;5.37;;;;;;;-6.94;72.59;100697.68;1736743;82;21358;-68
2023/01/07 00:50:53;;;;;;;12.43;7.80;;;;;;;-6.90;72.75;100700.42;1729994;82;20995;-71
2023/01/07 00:53:21;;;;;;;7.63;5.83;;;;;;;-6.85;72.58;100700.08;1703332;82;20974;-71
2023/01/07 00:55:48;;;;;;;6.30;5.60;;;;;;;-6.92;72.23;100703.64;1706871;82;21058;-72
2023/01/07 00:58:22;;;;;;;5.77;4.50;;;;;;;-6.98;72.23;100705.39;1706898;82;21026;-72
2023/01/07 01:00:48;;;;;;;8.23;4.97;;;;;;;-7.02;72.17;100710.96;1714797;82;22202;-70
2023/01/07 01:03:15;;;;;;;7.53;6.23;;;;;;;-7.08;71.90;100705.70;1719671;82;21542;-72
2023/01/07 02:29:09;;;;;;;10.77;7.47;;;;;;;-8.06;76.49;100713.19;1818895;78;23309;-67
2023/01/07 02:32:08;;;;;;;10.50;8.73;;;;;;;-7.99;76.36;100710.97;1786863;80;21387;-68
2023/01/07 02:34:56;;;;;;;11.37;7.40;;;;;;;-7.93;75.91;100711.85;1738781;80;21147;-69
2023/01/07 02:37:50;;;;;;;8.23;6.47;;;;;;;-7.96;75.55;100708.16;1701750;82;20967;-68
2023/01/07 02:40:34;;;;;;;13.00;8.03;;;;;;;-7.95;75.75;100715.03;1731961;82;20939;-68
2023/01/07 02:43:33;;;;;;;7.87;6.03;;;;;;;-7.82;75.97;100707.19;1702973;84;21491;-69
2023/01/07 02:46:30;;;;;;;9.97;6.93;;;;;;;-7.74;75.31;100713.54;1691722;84;21014;-68
2023/01/07 02:49:00;;;;;;;11.67;7.17;;;;;;;-7.70;75.32;100714.98;1708751;83;21778;-68
2023/01/07 02:51:33;;;;;;;9.33;6.20;;;;;;;-7.65;75.86;100711.58;1691073;84;21016;-67
2023/01/07 02:56:25;;;;;;;10.03;6.40;;;;;;;-7.48;75.88;100702.52;1807842;78;22439;-71
2023/01/07 02:59:01;;;;;;;9.83;5.67;;;;;;;-7.45;75.89;100718.00;1722435;83;21043;-68
2023/01/07 03:01:43;;;;;;;9.47;6.33;;;;;;;-7.46;75.73;100716.80;1723152;82;21302;-70
2023/01/07 03:04:34;;;;;;;7.53;5.77;;;;;;;-7.45;75.78;100717.16;1726599;81;20964;-71
2023/01/07 03:07:40;;;;;;;13.30;8.23;;;;;;;-7.47;75.83;100712.03;1715792;81;21011;-69
2023/01/07 03:10:24;;;;;;;10.83;7.13;;;;;;;-7.45;76.04;100717.16;1678386;84;20968;-69
2023/01/07 03:12:58;;;;;;;13.93;8.17;;;;;;;-7.36;75.93;100723.03;1722484;82;21031;-70
2023/01/07 03:15:32;;;;;;;12.10;7.57;;;;;;;-7.31;75.85;100729.59;1710172;83;21583;-70
2023/01/07 03:18:03;;;;;;;12.40;7.50;;;;;;;-7.34;75.27;100730.30;1729082;82;20983;-69
2023/01/07 03:20:32;;;;;;;9.47;6.33;;;;;;;-7.47;75.27;100741.23;1731250;82;21003;-72
2023/01/07 03:23:00;;;;;;;12.80;7.70;;;;;;;-7.54;75.25;100732.56;1716320;82;21556;-71
2023/01/07 03:25:27;;;;;;;8.70;6.40;;;;;;;-7.60;74.84;100732.98;1740770;82;21024;-69
2023/01/07 03:27:54;;;;;;;7.73;6.63;;;;;;;-7.73;75.20;100735.27;1740178;82;22414;-69
2023/01/07 03:30:21;;;;;;;12.77;7.43;;;;;;;-7.71;75.62;100742.50;1654841;85;21044;-69
2023/01/07 03:32:55;;;;;;;9.83;8.13;;;;;;;-7.66;75.58;100738.63;1695351;84;21016;-68
2023/01/07 03:35:23;;;;;;;9.30;5.80;;;;;;;-7.62;75.70;100739.23;1675266;84;20951;-68
2023/01/07 03:37:49;;;;;;;10.77;7.30;;;;;;;-7.62;75.23;100734.86;1674435;85;21092;-70
2023/01/07 03:40:16;;;;;;;11.90;7.43;;;;;;;-7.66;74.85;100733.41;1667661;85;21141;-70
2023/01/07 03:42:47;;;;;;;10.83;6.97;;;;;;;-7.66;74.83;100727.34;1675344;84;20999;-70
2023/01/07 03:45:21;;;;;;;11.93;5.87;;;;;;;-7.65;74.75;100732.94;1710032;82;20989;-69
2023/01/07 03:47:54;;;;;;;14.53;8.33;;;;;;;-7.66;74.63;100736.02;1730456;82;21505;-68
2023/01/07 03:50:23;;;;;;;11.15;7.60;;;;;;;-7.68;74.70;100728.78;1714029;82;21553;-69
2023/01/07 03:52:50;;;;;;;12.33;7.70;;;;;;;-7.67;75.00;100733.50;1714384;82;21269;-70
2023/01/07 03:55:18;;;;;;;15.53;6.97;;;;;;;-7.64;74.87;100733.31;1731846;82;21009;-70
2023/01/07 03:57:45;;;;;;;10.93;6.50;;;;;;;-7.66;75.00;100729.95;1691743;84;20988;-69
2023/01/07 04:00:13;;;;;;;12.80;7.20;;;;;;;-7.67;74.98;100730.89;1733515;82;21056;-70
2023/01/07 04:02:45;;;;;;;12.13;7.37;;;;;;;-7.71;74.83;100730.28;1691291;84;21055;-71
2023/01/07 04:05:13;;;;;;;9.87;6.50;;;;;;;-7.70;74.85;100737.19;1727985;82;21022;-70
2023/01/07 04:07:41;;;;;;;9.33;6.43;;;;;;;-7.69;74.56;100732.80;1720603;82;20990;-70
2023/01/07 04:10:08;;;;;;;10.83;6.53;;;;;;;-7.70;74.40;100736.34;1716023;82;21024;-70
2023/01/07 04:12:36;;;;;;;9.00;6.43;;;;;;;-7.73;74.41;100741.80;1677320;82;21061;-68
2023/01/07 04:15:03;;;;;;;11.83;7.33;;;;;;;-7.71;74.23;100745.95;1723058;82;21130;-69
2023/01/07 04:17:32;;;;;;;10.23;7.60;;;;;;;-7.71;73.68;100751.64;1708369;82;21528;-69
2023/01/07 04:19:58;;;;;;;10.60;6.87;;;;;;;-7.68;73.77;100757.98;1732853;82;20923;-70
2023/01/07 04:22:27;;;;;;;8.97;7.17;;;;;;;-7.67;73.43;100764.84;1724010;82;21032;-71
2023/01/07 04:24:55;;;;;;;9.87;7.00;;;;;;;-7.77;72.87;100761.23;1720360;82;21012;-70
2023/01/07 04:27:21;;;;;;;10.23;6.47;;;;;;;-7.95;72.93;100763.31;1732575;82;21017;-70
2023/01/07 04:29:48;;;;;;;13.27;7.33;;;;;;;-8.04;73.34;100767.88;1733173;82;21232;-70
2023/01/07 04:32:17;;;;;;;10.70;7.10;;;;;;;-8.04;73.65;100765.26;1729646;82;21008;-72
2023/01/07 04:34:44;;;;;;;9.77;6.53;;;;;;;-8.05;73.83;100770.95;1731658;82;20988;-71
2023/01/07 04:37:11;;;;;;;9.10;6.63;;;;;;;-8.06;74.12;100767.16;1732961;82;20909;-70
2023/01/07 04:39:38;;;;;;;11.33;6.73;;;;;;;-8.04;74.14;100770.02;1717208;82;21751;-70
2023/01/07 04:42:04;;;;;;;11.23;6.30;;;;;;;-8.07;74.51;100777.22;1706716;82;21975;-70
2023/01/07 04:44:31;;;;;;;9.53;6.03;;;;;;;-8.06;74.46;100770.61;1710666;82;20985;-70
2023/01/07 04:46:58;;;;;;;9.60;6.60;;;;;;;-8.08;73.72;100775.55;1704227;84;21119;-71
2023/01/07 04:49:25;;;;;;;14.80;7.57;;;;;;;-8.22;72.95;100788.70;1703603;84;21019;-71
2023/01/07 04:51:51;;;;;;;10.30;6.00;;;;;;;-8.26;72.65;100780.72;1704659;82;21069;-70
2023/01/07 04:54:18;;;;;;;10.57;6.10;;;;;;;-8.28;72.17;100780.80;1664276;84;21265;-71
2023/01/07 04:56:45;;;;;;;15.03;7.13;;;;;;;-8.26;72.04;100783.32;1732441;82;21091;-71
2023/01/07 04:59:12;;;;;;;17.23;9.03;;;;;;;-8.35;71.21;100782.67;1731194;82;20988;-68
2023/01/07 05:01:38;;;;;;;16.97;7.87;;;;;;;-8.40;71.26;100790.34;1727751;82;21030;-70
2023/01/07 05:04:07;;;;;;;9.93;5.97;;;;;;;-8.45;71.58;100787.66;1729756;82;20985;-69
2023/01/07 05:06:36;;;;;;;12.80;6.67;;;;;;;-8.37;71.94;100787.98;1732045;81;21481;-69
2023/01/07 05:09:03;;;;;;;12.30;7.07;;;;;;;-8.37;71.75;100788.45;1728221;82;20976;-70
2023/01/07 05:11:31;;;;;;;8.03;5.30;;;;;;;-8.37;71.55;100790.59;1727361;82;20932;-70
2023/01/07 05:14:02;;;;;;;11.60;7.93;;;;;;;-8.45;71.46;100795.02;1712336;82;20988;-70
2023/01/07 05:16:30;;;;;;;12.20;8.15;;;;;;;-8.45;71.57;100790.27;1728145;82;21024;-70
2023/01/07 05:18:58;;;;;;;9.20;7.20;;;;;;;-8.60;71.50;100786.06;1732254;81;21009;-68
2023/01/07 05:21:25;;;;;;;16.60;8.30;;;;;;;-8.60;71.84;100796.03;1732439;82;20957;-70
2023/01/07 05:23:52;;;;;;;16.70;8.57;;;;;;;-8.62;72.05;100793.14;1727451;82;20985;-68
2023/01/07 05:26:19;;;;;;;10.50;6.70;;;;;;;-8.59;72.29;100795.10;1732297;82;21032;-70
2023/01/07 05:28:45;;;;;;;8.97;6.27;;;;;;;-8.53;72.28;100801.19;1736355;82;21056;-68
2023/01/07 05:31:12;;;;;;;12.83;7.77;;;;;;;-8.51;72.28;100801.10;1730461;82;21513;-69
2023/01/07 05:33:40;;;;;;;10.10;7.23;;;;;;;-8.49;71.95;100814.89;1730455;82;20949;-71
2023/01/07 05:36:07;;;;;;;9.77;6.20;;;;;;;-8.52;72.18;100815.91;1732048;82;21036;-69
2023/01/07 05:38:34;;;;;;;9.93;6.10;;;;;;;-8.50;72.39;100815.36;1681209;84;21142;-72
2023/01/07 05:41:01;;;;;;;11.20;6.80;;;;;;;-8.53;72.35;100814.23;1702737;84;21497;-70
2023/01/07 05:43:28;;;;;;;13.97;8.33;;;;;;;-8.56;72.30;100822.73;1716856;82;21290;-69
2023/01/07 05:45:55;;;;;;;13.53;6.73;;;;;;;-8.49;72.57;100830.54;1703293;82;20981;-70
2023/01/07 05:48:21;;;;;;;11.07;7.57;;;;;;;-8.53;72.36;100831.19;1702510;84;20941;-69
2023/01/07 05:50:48;;;;;;;10.87;7.13;;;;;;;-8.52;72.55;100828.11;1714119;82;20990;-71
2023/01/07 05:53:15;;;;;;;17.20;8.13;;;;;;;-8.52;72.63;100831.56;1727858;82;21239;-71
2023/01/07 05:55:41;;;;;;;14.83;7.17;;;;;;;-8.49;72.62;100835.26;1718648;82;21151;-70
2023/01/07 05:58:09;;;;;;;14.17;7.57;;;;;;;-8.55;72.58;100842.20;1696914;84;20976;-70
2023/01/07 06:00:37;;;;;;;13.10;8.80;;;;;;;-8.58;72.83;100845.45;1704533;83;20996;-67
2023/01/07 06:03:06;;;;;;;18.20;8.20;;;;;;;-8.60;73.07;100846.87;1722428;81;21044;-69
2023/01/07 06:05:34;;;;;;;10.90;8.10;;;;;;;-8.66;73.38;100857.70;1727356;83;22279;-72
2023/01/07 06:08:02;;;;;;;13.33;9.50;;;;;;;-8.72;73.53;100860.69;1703795;83;20945;-67
2023/01/07 06:10:28;;;;;;;26.63;15.40;;;;;;;-8.65;73.85;100870.27;1725359;83;21058;-67
2023/01/07 06:12:55;;;;;;;19.43;11.33;;;;;;;-8.61;73.75;100866.06;1710003;82;21011;-68
2023/01/07 06:15:22;;;;;;;19.47;13.20;;;;;;;-8.60;73.65;100878.63;1714142;81;20999;-67
2023/01/07 06:17:48;;;;;;;25.17;13.37;;;;;;;-8.71;73.68;100870.19;1698750;82;21118;-68
2023/01/07 06:20:15;;;;;;;12.00;9.73;;;;;;;-8.75;74.00;100875.23;1714782;83;21735;-68
2023/01/07 06:22:42;;;;;;;15.53;9.33;;;;;;;-8.73;74.29;100870.77;1722708;83;21531;-68
2023/01/07 06:25:10;;;;;;;16.37;10.27;;;;;;;-8.65;74.29;100877.63;1725351;83;21484;-68
2023/01/07 06:27:37;;;;;;;16.40;10.57;;;;;;;-8.65;74.17;100875.48;1727098;83;21584;-68
2023/01/07 06:30:05;;;;;;;15.73;8.87;;;;;;;-8.71;74.31;100876.70;1715872;83;21537;-68
2023/01/07 06:32:39;;;;;;;15.13;8.43;;;;;;;-8.64;74.63;100884.98;1722129;82;21253;-69
2023/01/07 06:35:09;;;;;;;13.23;7.30;;;;;;;-8.62;74.40;100883.09;1724795;82;20921;-67
2023/01/07 06:37:38;;;;;;;11.97;8.98;;;;;;;-8.61;74.57;100881.70;1720458;83;21013;-68
2023/01/07 06:40:06;;;;;;;15.30;8.40;;;;;;;-8.60;74.51;100882.08;1721991;83;21003;-68
2023/01/07 06:42:33;;;;;;;12.03;8.83;;;;;;;-8.56;74.68;100885.31;1724414;83;21049;-68
2023/01/07 06:45:00;;;;;;;17.40;8.37;;;;;;;-8.42;74.65;100884.80;1726218;83;21139;-68
2023/01/07 06:47:27;;;;;;;11.57;6.90;;;;;;;-8.34;74.47;100890.00;1717874;82;20995;-71
2023/01/07 06:49:53;;;;;;;17.47;7.03;;;;;;;-8.30;74.29;100891.47;1726868;83;21011;-69
2023/01/07 06:52:20;;;;;;;14.40;8.03;;;;;;;-8.31;73.97;100892.39;1726059;83;20937;-70
2023/01/07 06:54:47;;;;;;;14.03;8.40;;;;;;;-8.37;74.02;100894.92;1719814;83;21077;-70
2023/01/07 06:57:13;;;;;;;13.30;8.47;;;;;;;-8.36;74.31;100898.37;1723994;81;21100;-69
2023/01/07 06:59:40;;;;;;;14.13;8.57;;;;;;;-8.31;74.51;100898.91;1724530;82;21084;-69
2023/01/07 07:02:06;;;;;;;13.40;7.83;;;;;;;-8.24;74.30;100904.05;1726091;82;21061;-70
2023/01/07 07:04:33;;;;;;;14.43;8.77;;;;;;;-8.20;74.15;100905.55;1728830;82;21048;-70
2023/01/07 07:06:59;;;;;;;16.33;8.53;;;;;;;-8.14;74.05;100906.43;1726492;82;21064;-71
2023/01/07 07:09:26;;;;;;;16.20;10.67;;;;;;;-8.08;73.96;100913.86;1655184;85;21204;-70
2023/01/07 07:11:53;;;;;;;16.80;10.03;;;;;;;-8.08;73.96;100909.95;1718647;81;21036;-72
2023/01/07 07:14:20;;;;;;;13.73;8.83;;;;;;;-8.15;73.78;100917.83;1693726;82;21064;-70
2023/01/07 07:16:48;;;;;;;17.30;9.37;;;;;;;-8.25;73.96;100920.67;1714750;81;20966;-68
2023/01/07 07:19:15;;;;;;;15.33;9.23;;;;;;;-8.30;74.15;100930.59;1726094;82;21092;-69
2023/01/07 07:21:41;;;;;;;13.17;7.60;;;;;;;-8.32;74.35;100924.63;1658012;85;21828;-69
2023/01/07 07:24:09;;;;;;;20.13;11.37;;;;;;;-8.29;74.49;100930.45;1730382;82;21690;-70
2023/01/07 07:26:37;;;;;;;16.43;9.40;;;;;;;-8.28;74.63;100941.25;1726524;82;21093;-70
2023/01/07 07:29:03;;;;;;;11.77;7.33;;;;;;;-8.25;74.69;100942.84;1729906;82;20961;-69
2023/01/07 07:31:30;;;;;;;18.63;11.27;;;;;;;-8.26;74.77;100949.83;1727425;80;21083;-68
2023/01/07 07:33:57;;;;;;;15.07;9.80;;;;;;;-8.39;74.85;100941.13;1724116;82;21157;-67
2023/01/07 07:36:23;;;;;;;18.27;10.47;;;;;;;-8.42;75.21;100946.56;1723408;82;21112;-67
2023/01/07 07:38:50;;;;;;;18.37;12.37;;;;;;;-8.46;75.39;100955.05;1704096;82;21097;-70
2023/01/07 07:41:17;;;;;;;15.23;9.77;;;;;;;-8.50;75.60;100958.80;1728318;81;21143;-67
2023/01/07 07:43:44;;;;;;;18.00;9.67;;;;;;;-8.52;75.85;100952.83;1716216;82;21087;-69
2023/01/07 07:46:10;;;;;;;20.50;11.00;;;;;;;-8.51;76.10;100954.51;1722211;82;21123;-69
2023/01/07 07:48:38;;;;;;;9.40;7.90;;;;;;;-8.61;76.27;100959.93;1709133;82;21572;-67
2023/01/07 07:51:05;;;;;;;15.60;8.50;;;;;;;-8.73;77.02;100960.72;1714090;82;21540;-67
2023/01/07 07:53:31;;;;;;;15.03;9.13;;;;;;;-8.84;77.43;100962.68;1725541;82;21014;-69
2023/01/07 07:55:58;;;;;;;15.80;10.43;;;;;;;-8.86;77.66;100963.23;1725660;81;21075;-68
2023/01/07 07:58:24;;;;;;;15.63;9.43;;;;;;;-8.78;78.09;100955.41;1735029;81;21143;-71
2023/01/07 08:00:53;;;;;;;15.03;8.57;;;;;;;-8.70;78.44;100962.28;1730143;81;20971;-68
2023/01/07 08:03:19;;;;;;;14.50;8.80;;;;;;;-8.56;78.55;100971.38;1724232;81;21046;-68
2023/01/07 08:05:46;;;;;;;15.50;9.43;;;;;;;-8.48;78.57;100967.34;1735609;81;20997;-67
2023/01/07 08:08:13;;;;;;;15.67;9.13;;;;;;;-8.49;78.33;100966.97;1750707;81;21496;-66
2023/01/07 08:10:41;;;;;;;10.40;7.60;;;;;;;-8.46;78.18;100972.47;1740189;82;21043;-68
2023/01/07 08:13:08;;;;;;;18.70;8.07;;;;;;;-8.40;78.01;100971.63;1749431;81;21128;-69
2023/01/07 08:15:36;;;;;;;12.60;8.57;;;;;;;-8.35;77.83;100968.72;1750666;81;21046;-67
2023/01/07 08:18:06;;;;;;;16.73;9.13;;;;;;;-8.33;78.06;100972.52;1730022;81;21020;-72
2023/01/07 08:20:34;;;;;;;12.10;8.83;;;;;;;-8.16;78.26;100967.03;1732469;81;21013;-69
2023/01/07 08:23:03;;;;;;;17.33;9.53;;;;;;;-8.05;77.85;100970.61;1736168;81;21902;-69
2023/01/07 08:25:30;;;;;;;13.07;6.47;;;;;;;-8.05;76.80;100974.52;1739241;80;21560;-69
2023/01/07 08:27:58;;;;;;;9.73;7.97;;;;;;;-8.06;76.66;100973.34;1752182;80;20972;-70
2023/01/07 08:30:25;;;;;;;13.63;7.80;;;;;;;-8.10;76.46;100978.36;1738462;81;21015;-69
2023/01/07 08:32:52;;;;;;;13.77;8.53;;;;;;;-8.13;76.67;100984.62;1752711;80;21044;-68
2023/01/07 08:35:18;;;;;;;11.37;6.63;;;;;;;-8.12;76.65;100988.08;1750141;81;21232;-68
2023/01/07 08:37:45;;;;;;;12.33;7.80;;;;;;;-8.04;76.70;100985.33;1732967;81;20991;-68
2023/01/07 08:40:12;;;;;;;15.77;8.53;;;;;;;-8.22;75.28;100979.16;1749017;81;21127;-69
2023/01/07 08:42:39;;;;;;;12.93;6.27;;;;;;;-8.33;75.92;100982.48;1751067;81;20976;-69
2023/01/07 08:45:07;;;;;;;12.50;7.70;;;;;;;-8.33;76.24;100978.57;1741271;81;21027;-69
2023/01/07 08:47:34;;;;;;;9.83;5.87;;;;;;;-8.34;76.79;100981.30;1742925;82;22446;-68
2023/01/07 08:50:00;;;;;;;16.50;8.73;;;;;;;-8.38;77.25;100983.24;1742415;80;21040;-67
2023/01/07 08:52:27;;;;;;;14.80;8.77;;;;;;;-8.42;77.57;100980.00;1754889;80;21022;-68
2023/01/07 08:54:53;;;;;;;12.17;8.40;;;;;;;-8.41;77.80;100975.63;1749726;80;20979;-68
2023/01/07 08:57:20;;;;;;;12.47;6.30;;;;;;;-8.39;77.76;100973.27;1752536;81;21117;-69
2023/01/07 08:59:46;;;;;;;15.33;7.80;;;;;;;-8.31;78.26;100974.11;1745360;81;21213;-68
2023/01/07 09:02:17;;;;;;;10.43;7.87;;;;;;;-8.23;77.83;100974.88;1739883;81;21095;-68
2023/01/07 09:04:43;;;;;;;12.97;8.53;;;;;;;-8.20;77.55;100969.48;1748368;81;21030;-70
2023/01/07 09:07:10;;;;;;;15.50;7.43;;;;;;;-8.04;77.71;100976.66;1753577;81;21027;-69
2023/01/07 09:09:38;;;;;;;13.07;6.93;;;;;;;-7.88;77.54;100972.13;1736556;81;21041;-69
2023/01/07 09:12:06;;;;;;;8.63;7.13;;;;;;;-7.84;76.91;100965.76;1741493;80;21285;-71
2023/01/07 09:14:34;;;;;;;12.63;8.23;;;;;;;-7.72;77.14;100963.63;1755522;81;20995;-72
2023/01/07 09:17:01;;;;;;;14.27;8.47;;;;;;;-7.63;76.70;100960.89;1755155;81;21539;-71
2023/01/07 09:19:27;;;;;;;14.03;8.47;;;;;;;-7.61;75.30;100962.92;1689955;83;21070;-71
2023/01/07 09:21:55;;;;;;;12.47;7.73;;;;;;;-7.65;75.07;100951.01;1728551;82;21044;-73
2023/01/07 09:24:22;;;;;;;16.17;7.60;;;;;;;-7.65;75.09;100958.38;1728045;81;22096;-71
2023/01/07 09:26:49;;;;;;;10.43;5.77;;;;;;;-7.57;74.93;100963.08;1707057;82;21358;-70
2023/01/07 09:29:15;;;;;;;12.47;7.93;;;;;;;-7.54;74.61;100953.75;1715569;82;21576;-71
2023/01/07 09:31:42;;;;;;;12.93;8.43;;;;;;;-7.65;74.04;100961.45;1713949;81;21522;-70
2023/01/07 09:34:09;;;;;;;13.70;7.50;;;;;;;-7.82;74.14;100957.84;1727641;81;21088;-69
2023/01/07 09:36:35;;;;;;;9.43;6.77;;;;;;;-8.01;74.65;100951.19;1725722;81;21107;-69
2023/01/07 09:39:02;;;;;;;14.37;8.30;;;;;;;-8.03;74.72;100950.47;1730623;82;20958;-70
2023/01/07 09:41:55;;;;;;;13.20;7.43;;;;;;;-8.09;74.58;100950.87;1726501;82;21000;-72
2023/01/07 09:44:44;;;;;;;29.10;13.98;;;;;;;-8.07;74.88;100948.17;1713478;81;21029;-71
2023/01/07 09:47:13;;;;;;;23.13;12.17;;;;;;;-8.00;75.02;100945.50;1718772;81;21009;-70
2023/01/07 09:49:39;;;;;;;20.80;9.83;;;;;;;-7.91;74.46;100946.70;1706319;82;21407;-70
2023/01/07 09:52:18;;;;;;;10.97;7.80;;;;;;;-7.85;74.62;100946.27;1718334;81;21000;-70
2023/01/07 09:54:45;;;;;;;15.00;8.67;;;;;;;-7.74;74.71;100944.63;1707759;82;21028;-70
2023/01/07 09:57:15;;;;;;;15.97;6.80;;;;;;;-7.65;74.73;100940.56;1724899;82;21031;-69
2023/01/07 09:59:43;;;;;;;9.23;7.13;;;;;;;-7.46;74.61;100944.07;1691034;84;21071;-70
2023/01/07 10:02:31;;;;;;;16.77;8.60;;;;;;;-7.41;73.71;100945.91;1722533;82;22074;-72
2023/01/07 10:05:29;;;;;;;12.53;7.23;;;;;;;-7.42;73.18;100945.53;1717241;81;21537;-69
2023/01/07 12:04:34;;;;;;;18.30;11.40;;;;;;;-8.10;74.75;100964.84;1836156;76;31353;-76
2023/01/07 12:07:06;;;;;;;30.00;13.40;;;;;;;-8.10;74.60;100964.84;1798392;79;20995;-70
2023/01/07 12:09:37;;;;;;;12.10;7.87;;;;;;;-8.06;74.60;100955.91;1775224;79;21131;-72
2023/01/07 12:12:30;;;;;;;17.20;9.10;;;;;;;-7.99;74.38;100963.69;1798349;79;21030;-71
2023/01/07 12:15:01;;;;;;;15.87;11.80;;;;;;;-7.92;74.26;100959.37;1798666;79;20932;-67
2023/01/07 12:17:29;;;;;;;17.70;9.33;;;;;;;-7.82;74.35;100966.51;1798514;79;21038;-71
2023/01/07 12:20:16;;;;;;;20.63;10.57;;;;;;;-7.74;73.49;100975.13;1798382;79;21039;-69
2023/01/07 12:23:21;;;;;;;18.90;9.20;;;;;;;-7.71;73.24;100976.22;1796629;79;22167;-68
2023/01/07 12:26:09;;;;;;;15.37;8.23;;;;;;;-7.72;72.00;100975.38;1773972;79;20943;-68
2023/01/07 12:29:00;;;;;;;12.67;7.20;;;;;;;-7.67;71.56;100973.30;1737931;82;20915;-70
2023/01/07 12:31:56;;;;;;;19.57;8.38;;;;;;;-7.67;71.14;100973.77;1738386;82;21194;-70
2023/01/07 12:35:00;;;;;;;14.97;10.00;;;;;;;-7.62;71.20;100965.16;1744154;79;21054;-67
2023/01/07 12:37:51;;;;;;;17.33;9.37;;;;;;;-7.50;71.79;100970.41;1769277;81;21177;-70
2023/01/07 12:40:43;;;;;;;17.73;9.48;;;;;;;-7.29;71.32;100964.18;1769261;81;20958;-73
2023/01/07 12:43:24;;;;;;;24.10;7.87;;;;;;;-7.18;71.21;100976.52;1765934;81;20994;-71
2023/01/07 12:46:02;;;;;;;16.50;9.43;;;;;;;-7.16;70.24;100978.57;1747123;79;21579;-67
2023/01/07 12:49:00;;;;;;;17.57;9.70;;;;;;;-7.24;69.71;100979.58;1769718;79;21375;-71
2023/01/07 12:51:34;;;;;;;20.63;11.20;;;;;;;-7.38;69.28;100973.12;1768833;81;21915;-70
2023/01/07 12:54:23;;;;;;;18.10;9.40;;;;;;;-7.45;69.66;100981.86;1733008;82;21749;-70
2023/01/07 12:57:28;;;;;;;12.83;8.53;;;;;;;-7.36;70.14;100976.01;1673645;84;21054;-72
2023/01/07 13:00:14;;;;;;;18.93;9.67;;;;;;;-7.28;69.87;100972.86;1701841;84;21047;-71
2023/01/07 13:03:05;;;;;;;21.50;10.90;;;;;;;-7.29;69.51;100977.75;1698961;84;21344;-69
2023/01/07 13:05:40;;;;;;;15.60;10.53;;;;;;;-7.32;70.12;100977.94;1678843;83;21576;-71
2023/01/07 13:08:33;;;;;;;18.67;9.83;;;;;;;-7.31;70.07;100972.61;1670457;84;21099;-70
2023/01/07 13:11:17;;;;;;;15.32;8.08;;;;;;;-7.34;70.04;100985.91;1688789;84;21679;-71
2023/01/07 13:13:48;;;;;;;13.77;7.70;;;;;;;-7.37;69.91;100983.47;1691571;83;21399;-71
2023/01/07 13:16:15;;;;;;;16.17;8.50;;;;;;;-7.30;70.02;100986.52;1710802;83;21075;-71
2023/01/07 13:18:41;;;;;;;10.93;7.80;;;;;;;-7.27;69.00;100985.83;1702279;84;21208;-72
2023/01/07 13:21:12;;;;;;;14.67;7.20;;;;;;;-7.26;68.94;100993.20;1701506;83;21695;-70
2023/01/07 13:24:12;;;;;;;16.43;8.37;;;;;;;-7.26;68.30;100991.44;1702359;84;21027;-69
2023/01/07 13:26:57;;;;;;;11.63;7.07;;;;;;;-7.23;68.45;100991.67;1689274;84;21565;-72
2023/01/07 13:29:53;;;;;;;18.60;8.83;;;;;;;-7.11;68.08;100989.09;1668365;86;21671;-69
2023/01/07 13:32:51;;;;;;;12.00;7.03;;;;;;;-7.06;68.08;100977.84;1667463;86;21186;-70
2023/01/07 13:35:38;;;;;;;17.13;8.10;;;;;;;-7.05;67.55;100969.53;1683050;83;21041;-71
2023/01/07 13:38:40;;;;;;;16.87;9.07;;;;;;;-7.01;67.74;100984.53;1696362;84;20973;-70
2023/01/07 13:41:35;;;;;;;13.00;7.83;;;;;;;-7.01;67.43;100988.45;1718547;83;21056;-72
2023/01/07 13:44:25;;;;;;;12.07;7.67;;;;;;;-7.07;67.44;100990.54;1696533;83;21100;-71
2023/01/07 13:46:51;;;;;;;29.93;10.60;;;;;;;-7.11;67.63;100993.47;1718290;83;21855;-70
2023/01/07 13:49:28;;;;;;;11.83;7.17;;;;;;;-7.02;67.96;100992.84;1718014;83;21045;-69
2023/01/07 13:51:59;;;;;;;11.43;7.87;;;;;;;-6.95;67.74;100997.19;1718502;83;20966;-69
2023/01/07 13:54:52;;;;;;;12.17;6.90;;;;;;;-6.87;67.70;100998.31;1710323;82;21013;-68
2023/01/07 13:57:37;;;;;;;15.27;8.37;;;;;;;-6.83;67.71;100994.55;1659674;85;21071;-72
2023/01/07 14:00:06;;;;;;;12.40;6.70;;;;;;;-6.81;67.60;100995.75;1659260;85;22283;-71
2023/01/07 14:02:55;;;;;;;10.20;7.13;;;;;;;-6.88;67.51;100999.25;1687703;83;20988;-72
2023/01/07 14:05:25;;;;;;;16.33;8.03;;;;;;;-6.93;67.77;100993.50;1669007;85;21000;-68
2023/01/07 14:07:54;;;;;;;13.77;8.80;;;;;;;-6.80;67.87;100993.48;1705312;81;21016;-78
2023/01/07 14:10:35;;;;;;;15.20;8.13;;;;;;;-6.66;67.89;100991.57;1699370;84;21072;-72
2023/01/07 14:13:22;;;;;;;16.67;9.10;;;;;;;-6.52;67.59;100994.52;1699231;84;22541;-72
2023/01/07 14:16:06;;;;;;;14.53;7.80;;;;;;;-6.38;67.48;100995.67;1699301;84;21100;-69
2023/01/07 14:18:45;;;;;;;12.23;8.13;;;;;;;-6.20;67.21;100999.62;1714103;81;21035;-71
2023/01/07 14:21:52;;;;;;;18.77;8.63;;;;;;;-6.19;66.21;101004.38;1728333;82;21166;-70
2023/01/07 14:24:57;;;;;;;19.13;8.77;;;;;;;-6.20;66.17;101012.70;1728281;82;21104;-71
2023/01/07 14:27:42;;;;;;;17.23;9.97;;;;;;;-6.19;65.77;101014.86;1728244;83;22221;-71
2023/01/07 14:30:34;;;;;;;19.40;12.13;;;;;;;-6.30;65.59;101016.92;1699064;84;21368;-70
2023/01/07 14:33:03;;;;;;;24.50;13.50;;;;;;;-6.39;65.61;101024.13;1697540;84;21196;-69
2023/01/07 14:35:35;;;;;;;20.23;9.43;;;;;;;-6.27;66.01;101023.23;1699427;84;21035;-72
2023/01/07 14:38:30;;;;;;;28.15;14.65;;;;;;;-6.26;65.33;101024.92;1706798;81;20993;-69
2023/01/07 14:41:06;;;;;;;28.37;14.87;;;;;;;-6.40;65.39;101030.77;1728533;83;21090;-69
2023/01/07 14:43:48;;;;;;;29.93;15.83;;;;;;;-6.52;65.30;101038.19;1728251;83;20988;-73
2023/01/07 14:46:29;;;;;;;40.33;19.30;;;;;;;-6.56;65.83;101041.47;1728395;83;20972;-68
2023/01/07 14:49:04;;;;;;;35.53;19.67;;;;;;;-6.58;65.76;101039.92;1728468;81;20945;-70
2023/01/07 14:52:14;;;;;;;38.57;17.23;;;;;;;-6.63;65.97;101048.09;1728327;82;21013;-71
2023/01/07 14:55:26;;;;;;;39.13;18.77;;;;;;;-6.55;66.04;101047.08;1728352;82;21165;-70
2023/01/07 14:58:33;;;;;;;33.10;17.20;;;;;;;-6.54;66.20;101047.91;1724945;82;21017;-73
2023/01/07 15:01:27;;;;;;;29.30;15.67;;;;;;;-6.48;66.19;101056.18;1695252;82;20937;-69
2023/01/07 15:04:31;;;;;;;38.80;16.93;;;;;;;-6.46;66.12;101047.73;1706628;84;21036;-70
2023/01/07 15:06:58;;;;;;;32.67;15.43;;;;;;;-6.62;66.05;101049.27;1705343;84;21088;-71